createdAt,value
2023-04-23T00:00:54.759Z,26.62
2023-04-23T00:01:52.715Z,26.62
2023-04-23T00:02:52.815Z,26.58
2023-04-23T00:03:52.921Z,26.57
2023-04-23T00:04:53.089Z,26.60
2023-04-23T00:05:52.713Z,26.62
2023-04-23T00:06:52.704Z,26.66
2023-04-23T00:07:52.736Z,26.63
2023-04-23T00:08:52.704Z,26.57
2023-04-23T00:09:52.737Z,26.66
2023-04-23T00:10:52.706Z,26.62
2023-04-23T00:11:52.711Z,26.63
2023-04-23T00:12:52.702Z,26.62
2023-04-23T00:13:52.712Z,26.67
2023-04-23T00:14:52.701Z,26.63
2023-04-23T00:15:52.734Z,26.60
2023-04-23T00:16:52.703Z,26.57
2023-04-23T00:17:52.752Z,26.62
2023-04-23T00:18:52.701Z,26.60
2023-04-23T00:19:52.708Z,26.62
2023-04-23T00:20:52.697Z,26.63
2023-04-23T00:21:52.708Z,26.60
2023-04-23T00:22:52.701Z,26.65
2023-04-23T00:23:52.731Z,26.63
2023-04-23T00:24:52.707Z,26.65
2023-04-23T00:25:52.714Z,26.63
2023-04-23T00:26:52.697Z,26.62
2023-04-23T00:27:52.726Z,26.62
2023-04-23T00:28:52.696Z,26.67
2023-04-23T00:29:52.704Z,26.65
2023-04-23T00:30:52.703Z,26.62
2023-04-23T00:31:52.760Z,26.58
2023-04-23T00:32:52.757Z,26.65
2023-04-23T00:33:52.703Z,26.69
2023-04-23T00:34:52.698Z,26.65
2023-04-23T00:35:52.699Z,26.62
2023-04-23T00:36:52.698Z,26.66
2023-04-23T00:37:52.702Z,26.67
2023-04-23T00:38:52.695Z,26.69
2023-04-23T00:39:52.723Z,26.65
2023-04-23T00:40:52.694Z,26.55
2023-04-23T00:41:52.701Z,26.62
2023-04-23T00:42:52.690Z,26.62
2023-04-23T00:43:52.754Z,26.67
2023-04-23T00:44:52.692Z,26.66
2023-04-23T00:45:52.820Z,26.65
2023-04-23T00:46:52.695Z,26.65
2023-04-23T00:47:52.761Z,26.66
2023-04-23T00:48:52.692Z,26.65
2023-04-23T00:49:52.698Z,26.66
2023-04-23T00:50:52.687Z,26.63
2023-04-23T00:51:52.700Z,26.69
2023-04-23T00:52:52.706Z,26.72
2023-04-23T00:53:52.697Z,26.69
2023-04-23T00:54:52.689Z,26.62
2023-04-23T00:55:52.717Z,26.66
2023-04-23T00:56:52.689Z,26.65
2023-04-23T00:57:52.703Z,26.66
2023-04-23T00:58:52.687Z,26.62
2023-04-23T00:59:52.697Z,26.70
2023-04-23T01:00:52.727Z,26.63
2023-04-23T01:01:52.695Z,26.65
2023-04-23T01:02:52.870Z,26.66
2023-04-23T01:03:53.214Z,26.63
2023-04-23T01:04:52.686Z,26.66
2023-04-23T01:05:52.727Z,26.65
2023-04-23T01:06:52.686Z,26.67
2023-04-23T01:07:52.708Z,26.63
2023-04-23T01:08:52.685Z,26.62
2023-04-23T01:09:52.700Z,26.66
2023-04-23T01:10:52.685Z,26.63
2023-04-23T01:11:52.714Z,26.69
2023-04-23T01:12:52.691Z,26.65
2023-04-23T01:13:52.695Z,26.62
2023-04-23T01:14:52.682Z,26.65
2023-04-23T01:15:52.697Z,26.63
2023-04-23T01:16:52.775Z,26.58
2023-04-23T01:17:52.753Z,26.62
2023-04-23T01:18:52.684Z,26.66
2023-04-23T01:19:52.693Z,26.67
2023-04-23T01:20:52.686Z,26.62
2023-04-23T01:21:52.693Z,26.63
2023-04-23T01:22:52.687Z,26.65
2023-04-23T01:23:52.698Z,26.66
2023-04-23T01:24:52.683Z,26.65
2023-04-23T01:25:52.700Z,26.62
2023-04-23T01:26:52.684Z,26.66
2023-04-23T01:27:52.721Z,26.66
2023-04-23T01:28:52.687Z,26.66
2023-04-23T01:29:52.691Z,26.69
2023-04-23T01:30:52.746Z,26.63
2023-04-23T01:31:52.687Z,26.58
2023-04-23T01:32:52.735Z,26.63
2023-04-23T01:33:52.687Z,26.62
2023-04-23T01:34:52.683Z,26.65
2023-04-23T01:35:52.685Z,26.55
2023-04-23T01:36:52.683Z,26.63
2023-04-23T01:37:52.717Z,26.63
2023-04-23T01:38:52.685Z,26.69
2023-04-23T01:39:52.690Z,26.62
2023-04-23T01:40:52.686Z,26.69
2023-04-23T01:41:52.702Z,26.62
2023-04-23T01:42:52.707Z,26.60
2023-04-23T01:43:52.705Z,26.60
2023-04-23T01:44:52.672Z,26.63
2023-04-23T01:45:52.736Z,26.60
2023-04-23T01:46:52.671Z,26.60
2023-04-23T01:47:52.788Z,26.63
2023-04-23T01:48:52.686Z,26.58
2023-04-23T01:49:52.698Z,26.62
2023-04-23T01:50:52.672Z,26.58
2023-04-23T01:51:52.680Z,26.70
2023-04-23T01:52:52.671Z,26.63
2023-04-23T01:53:52.677Z,26.60
2023-04-23T01:54:52.670Z,26.60
2023-04-23T01:55:52.704Z,26.62
2023-04-23T01:56:52.670Z,26.66
2023-04-23T01:57:52.673Z,26.58
2023-04-23T01:58:52.674Z,26.63
2023-04-23T01:59:52.699Z,26.58
2023-04-23T02:00:52.680Z,26.62
2023-04-23T02:01:52.701Z,26.67
2023-04-23T02:02:52.786Z,26.62
2023-04-23T02:03:52.772Z,26.63
2023-04-23T02:04:52.665Z,26.63
2023-04-23T02:05:52.675Z,26.57
2023-04-23T02:06:52.672Z,26.63
2023-04-23T02:07:52.681Z,26.60
2023-04-23T02:08:52.675Z,26.62
2023-04-23T02:09:52.665Z,26.58
2023-04-23T02:10:52.673Z,26.57
2023-04-23T02:11:52.670Z,26.58
2023-04-23T02:12:52.670Z,26.63
2023-04-23T02:13:52.663Z,26.67
2023-04-23T02:14:52.678Z,26.69
2023-04-23T02:15:52.697Z,26.63
2023-04-23T02:16:52.669Z,26.67
2023-04-23T02:17:52.695Z,26.62
2023-04-23T02:18:52.670Z,26.62
2023-04-23T02:19:52.662Z,26.58
2023-04-23T02:20:52.669Z,26.58
2023-04-23T02:21:52.680Z,26.65
2023-04-23T02:22:52.685Z,26.58
2023-04-23T02:23:52.660Z,26.66
2023-04-23T02:24:52.692Z,26.62
2023-04-23T02:25:52.701Z,26.63
2023-04-23T02:26:52.671Z,26.67
2023-04-23T02:27:52.658Z,26.63
2023-04-23T02:28:52.675Z,26.62
2023-04-23T02:29:52.659Z,26.63
2023-04-23T02:30:52.680Z,26.65
2023-04-23T02:31:52.844Z,26.63
2023-04-23T02:32:52.776Z,26.63
2023-04-23T02:33:52.665Z,26.62
2023-04-23T02:34:52.679Z,26.58
2023-04-23T02:35:52.658Z,26.69
2023-04-23T02:36:52.672Z,26.62
2023-04-23T02:37:52.678Z,26.62
2023-04-23T02:38:52.674Z,26.58
2023-04-23T02:39:52.659Z,26.63
2023-04-23T02:40:52.674Z,26.65
2023-04-23T02:41:52.672Z,26.63
2023-04-23T02:42:52.661Z,26.62
2023-04-23T02:43:52.679Z,26.65
2023-04-23T02:44:52.662Z,26.62
2023-04-23T02:45:52.654Z,26.65
2023-04-23T02:46:52.751Z,26.63
2023-04-23T02:47:52.756Z,26.62
2023-04-23T02:48:52.666Z,26.65
2023-04-23T02:49:52.655Z,26.62
2023-04-23T02:50:52.663Z,26.66
2023-04-23T02:51:52.657Z,26.66
2023-04-23T02:52:52.665Z,26.63
2023-04-23T02:53:52.649Z,26.69
2023-04-23T02:54:52.663Z,26.58
2023-04-23T02:55:52.647Z,26.63
2023-04-23T02:56:52.667Z,26.62
2023-04-23T02:57:52.663Z,26.62
2023-04-23T02:58:52.681Z,26.63
2023-04-23T02:59:52.648Z,26.62
2023-04-23T03:00:52.680Z,26.62
2023-04-23T03:01:52.728Z,26.62
2023-04-23T03:02:52.829Z,26.67
2023-04-23T03:03:52.854Z,26.58
2023-04-23T03:04:52.657Z,26.62
2023-04-23T03:05:52.676Z,26.60
2023-04-23T03:06:52.690Z,26.65
2023-04-23T03:07:52.656Z,26.60
2023-04-23T03:08:52.648Z,26.60
2023-04-23T03:09:52.643Z,26.62
2023-04-23T03:10:52.651Z,26.62
2023-04-23T03:11:52.642Z,26.66
2023-04-23T03:12:52.659Z,26.62
2023-04-23T03:13:52.664Z,26.63
2023-04-23T03:14:52.667Z,26.67
2023-04-23T03:15:52.668Z,26.67
2023-04-23T03:16:52.659Z,26.58
2023-04-23T03:17:52.752Z,26.66
2023-04-23T03:18:52.648Z,26.58
2023-04-23T03:19:52.665Z,26.60
2023-04-23T03:20:52.650Z,26.55
2023-04-23T03:21:52.650Z,26.57
2023-04-23T03:22:52.653Z,26.58
2023-04-23T03:23:52.636Z,26.62
2023-04-23T03:24:52.670Z,26.67
2023-04-23T03:25:52.648Z,26.55
2023-04-23T03:26:52.645Z,26.72
2023-04-23T03:27:52.667Z,26.58
2023-04-23T03:28:52.649Z,26.57
2023-04-23T03:29:52.637Z,26.63
2023-04-23T03:30:52.668Z,26.60
2023-04-23T03:31:52.639Z,26.58
2023-04-23T03:32:52.741Z,26.60
2023-04-23T03:33:52.636Z,26.54
2023-04-23T03:34:52.643Z,26.57
2023-04-23T03:35:52.656Z,26.58
2023-04-23T03:36:52.643Z,26.62
2023-04-23T03:37:52.641Z,26.62
2023-04-23T03:38:52.640Z,26.69
2023-04-23T03:39:52.639Z,26.62
2023-04-23T03:40:52.648Z,26.63
2023-04-23T03:41:52.641Z,26.62
2023-04-23T03:42:52.644Z,26.62
2023-04-23T03:43:52.651Z,26.67
2023-04-23T03:44:52.643Z,26.63
2023-04-23T03:45:52.709Z,26.55
2023-04-23T03:46:52.646Z,26.60
2023-04-23T03:47:52.684Z,26.62
2023-04-23T03:48:52.660Z,26.57
2023-04-23T03:49:52.631Z,26.65
2023-04-23T03:50:52.637Z,26.66
2023-04-23T03:51:52.653Z,26.67
2023-04-23T03:52:52.645Z,26.65
2023-04-23T03:53:52.629Z,26.65
2023-04-23T03:54:52.656Z,26.66
2023-04-23T03:55:52.630Z,26.66
2023-04-23T03:56:52.659Z,26.62
2023-04-23T03:57:52.636Z,26.67
2023-04-23T03:58:52.635Z,26.65
2023-04-23T03:59:52.632Z,26.67
2023-04-23T04:00:52.634Z,26.66
2023-04-23T04:01:52.632Z,26.65
2023-04-23T04:02:52.775Z,26.66
2023-04-23T04:03:53.013Z,26.60
2023-04-23T04:04:52.941Z,26.69
2023-04-23T04:05:52.778Z,26.65
2023-04-23T04:06:52.632Z,26.63
2023-04-23T04:07:52.652Z,26.72
2023-04-23T04:08:52.647Z,26.63
2023-04-23T04:09:52.643Z,26.69
2023-04-23T04:10:52.634Z,26.66
2023-04-23T04:11:53.370Z,26.63
2023-04-23T04:12:52.646Z,26.65
2023-04-23T04:13:52.633Z,26.66
2023-04-23T04:14:52.639Z,26.63
2023-04-23T04:15:52.733Z,26.65
2023-04-23T04:16:52.639Z,26.69
2023-04-23T04:17:52.664Z,26.65
2023-04-23T04:18:54.446Z,26.66
2023-04-23T04:19:52.632Z,26.65
2023-04-23T04:20:52.636Z,26.67
2023-04-23T04:21:52.624Z,26.67
2023-04-23T04:22:52.633Z,26.69
2023-04-23T04:23:52.939Z,26.70
2023-04-23T04:24:52.678Z,26.65
2023-04-23T04:25:52.625Z,26.76
2023-04-23T04:26:52.669Z,26.76
2023-04-23T04:27:52.630Z,26.70
2023-04-23T04:28:52.627Z,26.65
2023-04-23T04:29:52.624Z,26.65
2023-04-23T04:30:52.627Z,26.75
2023-04-23T04:31:52.903Z,26.67
2023-04-23T04:32:52.696Z,26.73
2023-04-23T04:33:52.629Z,26.76
2023-04-23T04:34:52.631Z,26.76
2023-04-23T04:35:52.630Z,26.76
2023-04-23T04:36:52.622Z,26.77
2023-04-23T04:37:52.632Z,26.72
2023-04-23T04:38:52.624Z,26.75
2023-04-23T04:39:52.638Z,26.66
2023-04-23T04:40:52.620Z,26.73
2023-04-23T04:41:52.614Z,26.80
2023-04-23T04:42:52.618Z,26.69
2023-04-23T04:43:52.648Z,26.67
2023-04-23T04:44:52.619Z,26.62
2023-04-23T04:45:52.630Z,26.67
2023-04-23T04:46:52.636Z,26.63
2023-04-23T04:47:52.722Z,26.65
2023-04-23T04:48:52.629Z,26.62
2023-04-23T04:49:52.608Z,26.60
2023-04-23T04:50:52.649Z,26.60
2023-04-23T04:51:52.614Z,26.57
2023-04-23T04:52:52.631Z,26.67
2023-04-23T04:53:52.613Z,26.52
2023-04-23T04:54:52.619Z,26.55
2023-04-23T04:55:52.639Z,26.52
2023-04-23T04:56:52.620Z,26.52
2023-04-23T04:57:52.612Z,26.60
2023-04-23T04:58:52.610Z,26.52
2023-04-23T04:59:52.638Z,26.50
2023-04-23T05:00:52.629Z,26.57
2023-04-23T05:01:52.608Z,26.60
2023-04-23T05:02:52.917Z,26.50
2023-04-23T05:03:52.764Z,26.58
2023-04-23T05:04:52.611Z,26.62
2023-04-23T05:05:52.614Z,26.52
2023-04-23T05:06:52.618Z,26.55
2023-04-23T05:07:52.602Z,26.52
2023-04-23T05:08:52.610Z,26.48
2023-04-23T05:09:52.613Z,26.47
2023-04-23T05:10:52.616Z,26.47
2023-04-23T05:11:52.627Z,26.47
2023-04-23T05:12:52.615Z,26.50
2023-04-23T05:13:52.606Z,26.50
2023-04-23T05:14:53.843Z,26.51
2023-04-23T05:15:52.598Z,26.52
2023-04-23T05:16:52.665Z,26.43
2023-04-23T05:17:52.670Z,26.39
2023-04-23T05:18:52.621Z,26.44
2023-04-23T05:19:52.596Z,26.50
2023-04-23T05:20:52.604Z,26.47
2023-04-23T05:21:52.597Z,26.48
2023-04-23T05:22:52.612Z,26.48
2023-04-23T05:23:52.595Z,26.45
2023-04-23T05:24:52.610Z,26.51
2023-04-23T05:25:54.339Z,26.47
2023-04-23T05:26:52.602Z,26.51
2023-04-23T05:27:52.618Z,26.48
2023-04-23T05:28:52.613Z,26.40
2023-04-23T05:29:52.595Z,26.52
2023-04-23T05:30:52.604Z,26.47
2023-04-23T05:31:52.663Z,26.51
2023-04-23T05:32:52.702Z,26.58
2023-04-23T05:33:52.606Z,26.52
2023-04-23T05:34:52.605Z,26.60
2023-04-23T05:35:52.588Z,26.57
2023-04-23T05:36:52.595Z,26.55
2023-04-23T05:37:52.588Z,26.52
2023-04-23T05:38:52.594Z,26.51
2023-04-23T05:39:52.585Z,26.57
2023-04-23T05:40:52.601Z,26.62
2023-04-23T05:41:52.594Z,26.55
2023-04-23T05:42:52.612Z,26.60
2023-04-23T05:43:52.722Z,26.55
2023-04-23T05:44:52.593Z,26.50
2023-04-23T05:45:52.587Z,26.48
2023-04-23T05:46:52.586Z,26.55
2023-04-23T05:47:52.625Z,26.55
2023-04-23T05:48:52.584Z,26.57
2023-04-23T05:49:52.577Z,26.54
2023-04-23T05:50:52.583Z,26.57
2023-04-23T05:51:52.574Z,26.57
2023-04-23T05:52:52.582Z,26.62
2023-04-23T05:53:52.573Z,26.52
2023-04-23T05:54:52.579Z,26.52
2023-04-23T05:55:52.584Z,26.52
2023-04-23T05:56:54.533Z,26.50
2023-04-23T05:57:52.592Z,26.51
2023-04-23T05:58:52.580Z,26.55
2023-04-23T05:59:52.632Z,26.48
2023-04-23T06:00:52.576Z,26.55
2023-04-23T06:01:52.566Z,26.52
2023-04-23T06:02:52.731Z,26.55
2023-04-23T06:03:52.994Z,26.66
2023-04-23T06:04:52.943Z,26.54
2023-04-23T06:05:52.655Z,26.55
2023-04-23T06:06:52.579Z,26.55
2023-04-23T06:07:52.565Z,26.57
2023-04-23T06:08:52.571Z,26.54
2023-04-23T06:09:52.564Z,26.55
2023-04-23T06:10:52.569Z,26.52
2023-04-23T06:11:52.561Z,26.55
2023-04-23T06:12:52.597Z,26.55
2023-04-23T06:13:52.562Z,26.51
2023-04-23T06:14:52.568Z,26.57
2023-04-23T06:15:52.649Z,26.51
2023-04-23T06:16:52.568Z,26.57
2023-04-23T06:17:52.567Z,26.58
2023-04-23T06:18:52.572Z,26.63
2023-04-23T06:19:52.557Z,26.51
2023-04-23T06:20:52.564Z,26.66
2023-04-23T06:21:52.560Z,26.67
2023-04-23T06:22:52.560Z,26.63
2023-04-23T06:23:52.565Z,26.66
2023-04-23T06:24:52.554Z,26.52
2023-04-23T06:25:52.565Z,26.57
2023-04-23T06:26:52.569Z,26.63
2023-04-23T06:27:52.565Z,26.66
2023-04-23T06:28:52.556Z,26.72
2023-04-23T06:29:52.567Z,26.58
2023-04-23T06:30:52.558Z,26.60
2023-04-23T06:31:52.703Z,26.58
2023-04-23T06:32:52.593Z,26.66
2023-04-23T06:33:52.560Z,26.60
2023-04-23T06:35:01.029Z,26.62
2023-04-23T06:35:52.559Z,26.65
2023-04-23T06:36:52.550Z,26.52
2023-04-23T06:37:52.564Z,26.65
2023-04-23T06:38:52.559Z,26.63
2023-04-23T06:39:52.553Z,26.60
2023-04-23T06:40:52.549Z,26.62
2023-04-23T06:41:52.560Z,26.63
2023-04-23T06:42:52.549Z,26.58
2023-04-23T06:43:52.560Z,26.69
2023-04-23T06:44:52.550Z,26.62
2023-04-23T06:45:52.555Z,26.58
2023-04-23T06:46:52.577Z,26.62
2023-04-23T06:47:52.630Z,26.58
2023-04-23T06:48:52.552Z,26.62
2023-04-23T06:49:52.557Z,26.62
2023-04-23T06:50:52.548Z,26.67
2023-04-23T06:51:52.555Z,26.67
2023-04-23T06:52:52.543Z,26.62
2023-04-23T06:53:52.550Z,26.62
2023-04-23T06:54:52.540Z,26.63
2023-04-23T06:55:52.552Z,26.62
2023-04-23T06:56:52.546Z,26.69
2023-04-23T06:57:52.549Z,26.66
2023-04-23T06:58:52.540Z,26.58
2023-04-23T06:59:52.550Z,26.57
2023-04-23T07:00:52.611Z,26.58
2023-04-23T07:01:52.550Z,26.62
2023-04-23T07:02:52.625Z,26.54
2023-04-23T07:03:52.609Z,26.52
2023-04-23T07:04:52.551Z,26.63
2023-04-23T07:05:52.558Z,26.60
2023-04-23T07:06:52.553Z,26.58
2023-04-23T07:07:52.564Z,26.66
2023-04-23T07:08:52.551Z,26.67
2023-04-23T07:09:52.558Z,26.60
2023-04-23T07:10:52.551Z,26.65
2023-04-23T07:11:52.573Z,26.67
2023-04-23T07:12:52.555Z,26.60
2023-04-23T07:13:52.562Z,26.62
2023-04-23T07:14:52.565Z,26.66
2023-04-23T07:15:52.588Z,26.73
2023-04-23T07:16:52.611Z,26.60
2023-04-23T07:17:52.598Z,26.63
2023-04-23T07:18:52.568Z,26.65
2023-04-23T07:19:52.585Z,26.58
2023-04-23T07:20:52.555Z,26.58
2023-04-23T07:21:52.569Z,26.60
2023-04-23T07:22:52.559Z,26.62
2023-04-23T07:23:52.562Z,26.58
2023-04-23T07:24:52.556Z,26.62
2023-04-23T07:25:52.563Z,26.62
2023-04-23T07:26:52.553Z,26.62
2023-04-23T07:27:52.563Z,26.62
2023-04-23T07:28:52.910Z,26.65
2023-04-23T07:29:52.564Z,26.62
2023-04-23T07:30:52.557Z,26.63
2023-04-23T07:31:52.570Z,26.63
2023-04-23T07:32:52.606Z,26.65
2023-04-23T07:33:52.604Z,26.62
2023-04-23T07:34:52.555Z,26.63
2023-04-23T07:35:52.591Z,26.63
2023-04-23T07:36:52.557Z,26.70
2023-04-23T07:37:52.561Z,26.66
2023-04-23T07:38:52.562Z,26.62
2023-04-23T07:39:52.567Z,26.69
2023-04-23T07:40:52.552Z,26.63
2023-04-23T07:41:52.558Z,26.62
2023-04-23T07:42:52.562Z,26.65
2023-04-23T07:43:52.557Z,26.65
2023-04-23T07:44:52.553Z,26.67
2023-04-23T07:45:52.578Z,26.63
2023-04-23T07:46:52.559Z,26.69
2023-04-23T07:47:52.590Z,26.63
2023-04-23T07:48:52.551Z,26.76
2023-04-23T07:49:52.559Z,26.72
2023-04-23T07:50:52.549Z,26.72
2023-04-23T07:51:52.576Z,26.70
2023-04-23T07:52:52.548Z,26.75
2023-04-23T07:53:52.555Z,26.73
2023-04-23T07:54:52.551Z,26.72
2023-04-23T07:55:52.559Z,26.72
2023-04-23T07:56:52.549Z,26.70
2023-04-23T07:57:52.559Z,26.73
2023-04-23T07:58:52.559Z,26.70
2023-04-23T07:59:52.565Z,26.72
2023-04-23T08:00:52.544Z,26.67
2023-04-23T08:01:52.555Z,26.70
2023-04-23T08:02:52.622Z,26.66
2023-04-23T08:03:52.836Z,26.70
2023-04-23T08:04:52.802Z,26.65
2023-04-23T08:05:52.553Z,26.70
2023-04-23T08:06:52.552Z,26.67
2023-04-23T08:07:52.575Z,26.65
2023-04-23T08:08:52.547Z,26.72
2023-04-23T08:09:52.561Z,26.63
2023-04-23T08:10:52.544Z,26.63
2023-04-23T08:11:52.551Z,26.65
2023-04-23T08:12:52.543Z,26.67
2023-04-23T08:13:52.556Z,26.65
2023-04-23T08:14:52.543Z,26.67
2023-04-23T08:15:52.571Z,26.62
2023-04-23T08:16:52.586Z,26.69
2023-04-23T08:17:52.566Z,26.69
2023-04-23T08:19:04.205Z,26.63
2023-04-23T08:19:52.545Z,26.67
2023-04-23T08:20:52.548Z,26.72
2023-04-23T08:21:52.554Z,26.76
2023-04-23T08:22:52.537Z,26.75
2023-04-23T08:23:52.565Z,26.75
2023-04-23T08:24:52.537Z,26.72
2023-04-23T08:25:52.542Z,26.72
2023-04-23T08:26:52.535Z,26.75
2023-04-23T08:27:52.570Z,26.72
2023-04-23T08:28:52.533Z,26.72
2023-04-23T08:29:52.541Z,26.76
2023-04-23T08:30:52.536Z,26.75
2023-04-23T08:31:52.589Z,26.62
2023-04-23T08:32:52.599Z,26.76
2023-04-23T08:33:52.540Z,26.70
2023-04-23T08:34:52.532Z,26.70
2023-04-23T08:35:52.539Z,26.60
2023-04-23T08:36:52.533Z,26.67
2023-04-23T08:37:52.593Z,26.72
2023-04-23T08:38:52.530Z,26.77
2023-04-23T08:39:52.569Z,26.75
2023-04-23T08:40:52.530Z,26.65
2023-04-23T08:41:52.545Z,26.73
2023-04-23T08:42:52.549Z,26.75
2023-04-23T08:43:52.540Z,26.60
2023-04-23T08:44:52.528Z,26.69
2023-04-23T08:45:52.540Z,26.65
2023-04-23T08:46:52.539Z,26.77
2023-04-23T08:47:52.595Z,26.69
2023-04-23T08:48:52.532Z,26.69
2023-04-23T08:49:52.538Z,26.76
2023-04-23T08:50:52.532Z,26.70
2023-04-23T08:51:52.550Z,26.66
2023-04-23T08:52:52.545Z,26.66
2023-04-23T08:53:52.554Z,26.63
2023-04-23T08:54:52.544Z,26.75
2023-04-23T08:55:52.558Z,26.77
2023-04-23T08:56:52.537Z,26.66
2023-04-23T08:57:52.687Z,26.67
2023-04-23T08:58:53.119Z,26.70
2023-04-23T08:59:52.530Z,26.73
2023-04-23T09:00:52.548Z,26.72
2023-04-23T09:01:52.552Z,26.65
2023-04-23T09:02:52.773Z,26.69
2023-04-23T09:03:52.642Z,26.73
2023-04-23T09:04:53.575Z,26.75
2023-04-23T09:05:52.534Z,26.75
2023-04-23T09:06:52.524Z,26.76
2023-04-23T09:07:52.534Z,26.75
2023-04-23T09:08:52.524Z,26.67
2023-04-23T09:09:52.543Z,26.72
2023-04-23T09:10:52.522Z,26.75
2023-04-23T09:11:54.796Z,26.73
2023-04-23T09:12:52.528Z,26.69
2023-04-23T09:13:52.531Z,26.75
2023-04-23T09:14:52.546Z,26.72
2023-04-23T09:15:52.558Z,26.73
2023-04-23T09:16:52.642Z,26.65
2023-04-23T09:17:52.575Z,26.72
2023-04-23T09:18:52.523Z,26.77
2023-04-23T09:19:52.529Z,26.66
2023-04-23T09:20:52.539Z,26.73
2023-04-23T09:21:52.535Z,26.69
2023-04-23T09:22:52.580Z,26.62
2023-04-23T09:23:52.540Z,26.77
2023-04-23T09:24:52.524Z,26.75
2023-04-23T09:25:52.526Z,26.62
2023-04-23T09:26:52.531Z,26.77
2023-04-23T09:27:52.550Z,26.67
2023-04-23T09:28:52.519Z,26.72
2023-04-23T09:29:52.527Z,26.75
2023-04-23T09:30:52.519Z,26.72
2023-04-23T09:31:52.536Z,26.69
2023-04-23T09:32:52.562Z,26.77
2023-04-23T09:33:52.525Z,26.77
2023-04-23T09:34:52.517Z,26.72
2023-04-23T09:35:52.524Z,26.76
2023-04-23T09:36:52.517Z,26.65
2023-04-23T09:37:52.560Z,26.77
2023-04-23T09:38:52.523Z,26.62
2023-04-23T09:39:52.528Z,26.75
2023-04-23T09:40:52.516Z,26.75
2023-04-23T09:41:52.529Z,26.69
2023-04-23T09:42:52.520Z,26.75
2023-04-23T09:43:52.545Z,26.58
2023-04-23T09:44:52.516Z,26.76
2023-04-23T09:45:52.550Z,26.65
2023-04-23T09:46:52.515Z,26.67
2023-04-23T09:47:52.586Z,26.63
2023-04-23T09:48:52.514Z,26.70
2023-04-23T09:49:52.537Z,26.69
2023-04-23T09:50:52.515Z,26.67
2023-04-23T09:51:52.527Z,26.69
2023-04-23T09:52:52.516Z,26.69
2023-04-23T09:53:52.532Z,26.69
2023-04-23T09:54:52.528Z,26.67
2023-04-23T09:55:52.517Z,26.67
2023-04-23T09:56:52.511Z,26.69
2023-04-23T09:57:52.517Z,26.65
2023-04-23T09:58:52.509Z,26.65
2023-04-23T09:59:57.403Z,26.65
2023-04-23T10:00:52.537Z,26.65
2023-04-23T10:01:52.516Z,26.65
2023-04-23T10:02:52.776Z,26.66
2023-04-23T10:03:52.688Z,26.66
2023-04-23T10:04:58.406Z,26.63
2023-04-23T10:06:01.052Z,26.63
2023-04-23T10:07:07.508Z,26.65
2023-04-23T10:07:52.522Z,26.62
2023-04-23T10:08:52.506Z,26.72
2023-04-23T10:09:52.516Z,26.65
2023-04-23T10:11:03.117Z,26.73
2023-04-23T10:11:52.863Z,26.69
2023-04-23T10:12:55.243Z,26.65
2023-04-23T10:13:52.522Z,26.73
2023-04-23T10:14:52.503Z,26.67
2023-04-23T10:15:52.632Z,26.72
2023-04-23T10:16:52.539Z,26.73
2023-04-23T10:17:52.682Z,26.72
2023-04-23T10:18:52.499Z,26.80
2023-04-23T10:19:52.508Z,26.76
2023-04-23T10:20:52.500Z,26.75
2023-04-23T10:21:56.186Z,26.75
2023-04-23T10:22:52.503Z,26.70
2023-04-23T10:23:52.507Z,26.73
2023-04-23T10:24:52.501Z,26.77
2023-04-23T10:25:52.506Z,26.76
2023-04-23T10:26:52.501Z,26.67
2023-04-23T10:27:54.219Z,26.77
2023-04-23T10:28:52.501Z,26.73
2023-04-23T10:29:52.506Z,26.73
2023-04-23T10:30:52.542Z,26.81
2023-04-23T10:31:52.530Z,26.67
2023-04-23T10:32:52.523Z,26.70
2023-04-23T10:33:58.948Z,26.72
2023-04-23T10:34:52.497Z,26.70
2023-04-23T10:35:52.506Z,26.66
2023-04-23T10:36:52.506Z,26.69
2023-04-23T10:37:52.535Z,26.70
2023-04-23T10:38:58.265Z,26.81
2023-04-23T10:39:52.500Z,26.73
2023-04-23T10:40:52.508Z,26.81
2023-04-23T10:41:52.505Z,26.72
2023-04-23T10:42:52.506Z,26.80
2023-04-23T10:43:52.505Z,26.72
2023-04-23T10:44:59.568Z,26.72
2023-04-23T10:45:52.502Z,26.76
2023-04-23T10:46:52.539Z,26.73
2023-04-23T10:47:52.547Z,26.72
2023-04-23T10:48:52.509Z,26.76
2023-04-23T10:49:52.497Z,26.75
2023-04-23T10:51:06.802Z,26.72
2023-04-23T10:52:52.506Z,26.76
2023-04-23T10:53:52.495Z,26.70
2023-04-23T10:54:52.501Z,26.69
2023-04-23T10:55:52.494Z,26.72
2023-04-23T10:56:52.511Z,26.70
2023-04-23T10:57:52.496Z,26.81
2023-04-23T10:58:52.503Z,26.75
2023-04-23T10:59:52.493Z,26.73
2023-04-23T11:00:52.507Z,26.73
2023-04-23T11:01:52.551Z,26.75
2023-04-23T11:02:52.590Z,26.72
2023-04-23T11:03:52.805Z,26.70
2023-04-23T11:04:52.582Z,26.72
2023-04-23T11:05:52.493Z,26.72
2023-04-23T11:06:52.510Z,26.75
2023-04-23T11:07:52.498Z,26.72
2023-04-23T11:08:52.521Z,26.67
2023-04-23T11:09:52.518Z,26.80
2023-04-23T11:10:52.506Z,26.73
2023-04-23T11:11:52.498Z,26.67
2023-04-23T11:12:52.523Z,26.75
2023-04-23T11:13:52.564Z,26.72
2023-04-23T11:14:52.508Z,26.76
2023-04-23T11:15:52.499Z,26.69
2023-04-23T11:16:52.735Z,26.77
2023-04-23T11:17:52.538Z,26.72
2023-04-23T11:18:52.496Z,26.73
2023-04-23T11:19:52.515Z,26.80
2023-04-23T11:20:52.498Z,26.73
2023-04-23T11:21:52.490Z,26.73
2023-04-23T11:22:52.518Z,26.72
2023-04-23T11:23:52.502Z,26.73
2023-04-23T11:24:52.496Z,26.75
2023-04-23T11:25:52.493Z,26.76
2023-04-23T11:26:52.494Z,26.70
2023-04-23T11:27:52.490Z,26.72
2023-04-23T11:28:52.500Z,26.75
2023-04-23T11:29:52.491Z,26.75
2023-04-23T11:30:52.492Z,26.75
2023-04-23T11:32:01.748Z,26.73
2023-04-23T11:32:52.681Z,26.76
2023-04-23T11:33:52.498Z,26.76
2023-04-23T11:34:52.492Z,26.82
2023-04-23T11:35:52.508Z,26.72
2023-04-23T11:36:52.504Z,26.81
2023-04-23T11:37:52.486Z,26.76
2023-04-23T11:38:52.494Z,26.76
2023-04-23T11:39:52.487Z,26.75
2023-04-23T11:40:52.491Z,26.69
2023-04-23T11:41:52.817Z,26.73
2023-04-23T11:42:52.492Z,26.69
2023-04-23T11:43:52.483Z,26.69
2023-04-23T11:44:52.492Z,26.72
2023-04-23T11:45:52.607Z,26.75
2023-04-23T11:46:52.496Z,26.69
2023-04-23T11:47:52.522Z,26.73
2023-04-23T11:48:52.491Z,26.72
2023-04-23T11:49:52.510Z,26.75
2023-04-23T11:50:52.499Z,26.73
2023-04-23T11:51:52.506Z,26.73
2023-04-23T11:52:52.491Z,26.72
2023-04-23T11:53:52.483Z,26.76
2023-04-23T11:54:52.489Z,26.80
2023-04-23T11:55:52.484Z,26.75
2023-04-23T11:56:52.487Z,26.82
2023-04-23T11:57:52.637Z,26.66
2023-04-23T11:58:52.487Z,26.76
2023-04-23T11:59:52.480Z,26.80
2023-04-23T12:00:52.487Z,26.73
2023-04-23T12:01:52.479Z,26.75
2023-04-23T12:02:52.665Z,26.76
2023-04-23T12:03:52.651Z,26.80
2023-04-23T12:04:52.543Z,26.77
2023-04-23T12:05:52.481Z,26.82
2023-04-23T12:06:52.486Z,26.73
2023-04-23T12:07:52.508Z,26.73
2023-04-23T12:08:52.487Z,26.67
2023-04-23T12:09:52.484Z,26.77
2023-04-23T12:10:52.490Z,26.73
2023-04-23T12:11:52.474Z,26.70
2023-04-23T12:12:52.484Z,26.70
2023-04-23T12:13:52.477Z,26.76
2023-04-23T12:14:52.484Z,26.72
2023-04-23T12:15:52.503Z,26.73
2023-04-23T12:16:52.517Z,26.76
2023-04-23T12:17:52.531Z,26.75
2023-04-23T12:18:52.482Z,26.72
2023-04-23T12:19:52.475Z,26.69
2023-04-23T12:20:52.483Z,26.72
2023-04-23T12:21:52.476Z,26.76
2023-04-23T12:22:52.481Z,26.75
2023-04-23T12:23:52.494Z,26.75
2023-04-23T12:24:52.483Z,26.73
2023-04-23T12:25:52.473Z,26.77
2023-04-23T12:26:52.510Z,26.72
2023-04-23T12:27:52.483Z,26.75
2023-04-23T12:28:52.479Z,26.67
2023-04-23T12:29:52.475Z,26.75
2023-04-23T12:30:52.478Z,26.76
2023-04-23T12:31:52.493Z,26.82
2023-04-23T12:32:52.542Z,26.75
2023-04-23T12:33:52.474Z,26.73
2023-04-23T12:34:52.479Z,26.77
2023-04-23T12:35:52.470Z,26.76
2023-04-23T12:36:52.485Z,26.82
2023-04-23T12:37:52.484Z,26.75
2023-04-23T12:38:52.483Z,26.82
2023-04-23T12:39:52.490Z,26.73
2023-04-23T12:40:52.479Z,26.76
2023-04-23T12:41:52.471Z,26.66
2023-04-23T12:42:52.484Z,26.67
2023-04-23T12:43:52.472Z,26.75
2023-04-23T12:44:52.487Z,26.80
2023-04-23T12:45:52.478Z,26.75
2023-04-23T12:46:54.003Z,26.76
2023-04-23T12:47:52.519Z,26.81
2023-04-23T12:48:52.477Z,26.75
2023-04-23T12:49:52.475Z,26.76
2023-04-23T12:50:52.478Z,26.77
2023-04-23T12:51:52.474Z,26.69
2023-04-23T12:52:52.487Z,26.80
2023-04-23T12:53:52.476Z,26.84